Airfield :







YOU CAN JOIN US ON...

 
LOGIN :

Register | Disclaimer

   EN    FR    IT 

 









Legend :    VFR   Marginal VFR   IFR   Intensive IFR   Very Intensive IFR
Visi :
Ceiling :
>= 8 km
>= 3000ft
5 to 8 km
1000 to 3000 ft
1500m to 5 km
500 to 1000 ft
800 to 1500m
200 to 500 ft
< 800m
< 200 ft
Symbols :   Thunderstorms  Fog  Heavy snow  Heavy precipitations  Wind > 20 kt






- Airport Elevation : 199 ft
- IATA code : YRQ


CYRQ - Trois-Rivières

CURRENT METAR :
  • 141900Z AUTO 03009G17KT 010V080 9SM CLR 24/14 A3004 RMK SLP175 DENSITY ALT 1100FT

EXPIRED METARs :
  • 141800Z AUTO 05012G19KT 9SM BKN100 24/14 A3004 RMK SLP174 DENSITY ALT 1100FT
  • 141700Z AUTO 09012G17KT 030V100 9SM BKN085 23/13 A3003 RMK SLP172 DENSITY ALT 1000FT

TAF TAF CYRQ
Valid from the 14 at 20:00 until the 15 at 08:00 UTC


141938Z 1420/1508 03010G20KT P6SM SKC
BECMG 1420/1422 05012KT
FM150300 05008KT P6SM SCT030 BKN040 RMK FCST BASED ON AUTO OBS. NXT FCST BY 150200Z
CZUL FIR / North America



MET'MAP, your aeronautical weather chart ! - Copyright ORBIFLY December 2007 - Disclaimer

ORBIFLY MET'MAP TEAM :

Programming & Development : Alexandra Zaïnal
Concept & original design : Baudouin d'Aumeries
Assistance for programming : Marc-Olivier Méhu
Technical & hardware support : Manuel Goepfert

Contact : metmap@orbifly.com




SOURCES & CREDITS :

   NOAA